createdAt,value
2019-03-29T00:00:59.172Z,1005.93
2019-03-29T00:01:59.021Z,1005.93
2019-03-29T00:02:58.998Z,1005.89
2019-03-29T00:03:59.012Z,1005.96
2019-03-29T00:04:58.977Z,1005.89
2019-03-29T00:05:58.966Z,1005.94
2019-03-29T00:06:58.957Z,1005.97
2019-03-29T00:07:58.944Z,1005.96
2019-03-29T00:08:58.969Z,1005.97
2019-03-29T00:09:58.930Z,1005.96
2019-03-29T00:10:58.915Z,1005.97
2019-03-29T00:11:58.899Z,1005.93
2019-03-29T00:12:58.892Z,1005.97
2019-03-29T00:13:58.877Z,1005.93
2019-03-29T00:14:58.889Z,1005.92
2019-03-29T00:15:59.988Z,1005.91
2019-03-29T00:16:58.848Z,1005.91
2019-03-29T00:17:58.836Z,1005.88
2019-03-29T00:18:58.822Z,1005.86
2019-03-29T00:19:58.838Z,1005.94
2019-03-29T00:20:58.798Z,1005.88
2019-03-29T00:21:58.789Z,1005.89
2019-03-29T00:22:58.783Z,1005.86
2019-03-29T00:24:06.716Z,1005.89
2019-03-29T00:24:59.782Z,1005.88
2019-03-29T00:25:59.118Z,1005.95
2019-03-29T00:26:58.734Z,1005.92
2019-03-29T00:27:58.722Z,1005.92
2019-03-29T00:28:58.713Z,1005.91
2019-03-29T00:29:58.730Z,1005.94
2019-03-29T00:30:58.693Z,1005.94
2019-03-29T00:31:58.682Z,1005.93
2019-03-29T00:32:58.669Z,1005.96
2019-03-29T00:33:58.658Z,1005.94
2019-03-29T00:34:58.669Z,1005.94
2019-03-29T00:35:59.229Z,1005.91
2019-03-29T00:36:58.640Z,1005.92
2019-03-29T00:37:58.611Z,1005.90
2019-03-29T00:38:58.601Z,1005.90
2019-03-29T00:39:58.628Z,1005.85
2019-03-29T00:40:59.008Z,1005.80
2019-03-29T00:41:58.566Z,1005.82
2019-03-29T00:42:58.559Z,1005.80
2019-03-29T00:43:58.547Z,1005.79
2019-03-29T00:44:58.534Z,1005.77
2019-03-29T00:45:58.546Z,1005.78
2019-03-29T00:46:58.511Z,1005.75
2019-03-29T00:47:58.504Z,1005.80
2019-03-29T00:48:58.490Z,1005.79
2019-03-29T00:49:58.483Z,1005.80
2019-03-29T00:50:59.113Z,1005.79
2019-03-29T00:51:58.456Z,1005.78
2019-03-29T00:52:58.446Z,1005.75
2019-03-29T00:53:58.438Z,1005.76
2019-03-29T00:54:58.425Z,1005.82
2019-03-29T00:55:58.435Z,1005.74
2019-03-29T00:56:58.398Z,1005.74
2019-03-29T00:57:58.391Z,1005.77
2019-03-29T00:58:58.377Z,1005.77
2019-03-29T00:59:58.369Z,1005.79
2019-03-29T01:00:58.384Z,1005.72
2019-03-29T01:01:58.349Z,1005.76
2019-03-29T01:02:58.336Z,1005.75
2019-03-29T01:03:58.327Z,1005.75
2019-03-29T01:04:58.314Z,1005.77
2019-03-29T01:05:58.324Z,1005.68
2019-03-29T01:06:58.288Z,1005.72
2019-03-29T01:08:07.848Z,1005.74
2019-03-29T01:08:59.266Z,1005.69
2019-03-29T01:09:58.260Z,1005.69
2019-03-29T01:10:58.268Z,1005.66
2019-03-29T01:11:58.233Z,1005.67
2019-03-29T01:12:58.895Z,1005.65
2019-03-29T01:13:58.213Z,1005.64
2019-03-29T01:14:58.209Z,1005.65
2019-03-29T01:15:58.215Z,1005.67
2019-03-29T01:16:58.179Z,1005.65
2019-03-29T01:17:58.171Z,1005.69
2019-03-29T01:18:58.160Z,1005.66
2019-03-29T01:19:58.151Z,1005.66
2019-03-29T01:20:58.166Z,1005.66
2019-03-29T01:21:58.126Z,1005.62
2019-03-29T01:22:58.204Z,1005.70
2019-03-29T01:23:58.106Z,1005.66
2019-03-29T01:24:58.096Z,1005.61
2019-03-29T01:25:58.118Z,1005.68
2019-03-29T01:26:58.068Z,1005.65
2019-03-29T01:27:58.060Z,1005.64
2019-03-29T01:28:58.052Z,1005.67
2019-03-29T01:29:58.037Z,1005.65
2019-03-29T01:30:58.029Z,1005.64
2019-03-29T01:31:58.035Z,1005.61
2019-03-29T01:32:58.922Z,1005.61
2019-03-29T01:33:57.990Z,1005.60
2019-03-29T01:34:57.979Z,1005.58
2019-03-29T01:35:57.972Z,1005.59
2019-03-29T01:36:57.981Z,1005.58
2019-03-29T01:37:57.950Z,1005.62
2019-03-29T01:38:57.941Z,1005.59
2019-03-29T01:39:57.927Z,1005.56
2019-03-29T01:40:57.917Z,1005.55
2019-03-29T01:41:57.926Z,1005.51
2019-03-29T01:42:57.891Z,1005.49
2019-03-29T01:43:57.965Z,1005.52
2019-03-29T01:44:57.888Z,1005.55
2019-03-29T01:45:57.859Z,1005.49
2019-03-29T01:46:57.875Z,1005.46
2019-03-29T01:47:57.836Z,1005.48
2019-03-29T01:48:57.828Z,1005.50
2019-03-29T01:49:57.820Z,1005.48
2019-03-29T01:50:57.803Z,1005.48
2019-03-29T01:51:57.822Z,1005.44
2019-03-29T01:52:57.786Z,1005.49
2019-03-29T01:53:57.772Z,1005.48
2019-03-29T01:54:57.762Z,1005.47
2019-03-29T01:55:57.751Z,1005.47
2019-03-29T01:56:57.762Z,1005.48
2019-03-29T01:57:58.954Z,1005.44
2019-03-29T01:58:57.722Z,1005.45
2019-03-29T01:59:57.704Z,1005.40
2019-03-29T02:00:57.695Z,1005.42
2019-03-29T02:01:57.706Z,1005.40
2019-03-29T02:02:57.675Z,1005.39
2019-03-29T02:03:57.667Z,1005.38
2019-03-29T02:04:57.652Z,1005.40
2019-03-29T02:05:57.642Z,1005.35
2019-03-29T02:06:57.663Z,1005.35
2019-03-29T02:07:57.619Z,1005.38
2019-03-29T02:08:57.608Z,1005.33
2019-03-29T02:09:57.594Z,1005.31
2019-03-29T02:10:57.585Z,1005.36
2019-03-29T02:11:57.595Z,1005.30
2019-03-29T02:12:57.563Z,1005.31
2019-03-29T02:13:57.560Z,1005.27
2019-03-29T02:14:57.543Z,1005.28
2019-03-29T02:15:57.531Z,1005.27
2019-03-29T02:16:57.554Z,1005.32
2019-03-29T02:17:57.509Z,1005.31
2019-03-29T02:18:57.497Z,1005.27
2019-03-29T02:19:58.133Z,1005.26
2019-03-29T02:20:57.477Z,1005.27
2019-03-29T02:21:57.466Z,1005.24
2019-03-29T02:22:57.475Z,1005.25
2019-03-29T02:23:57.442Z,1005.18
2019-03-29T02:24:57.437Z,1005.19
2019-03-29T02:25:57.422Z,1005.16
2019-03-29T02:26:57.409Z,1005.15
2019-03-29T02:27:57.420Z,1005.13
2019-03-29T02:28:57.387Z,1005.16
2019-03-29T02:29:57.382Z,1005.13
2019-03-29T02:30:57.545Z,1005.10
2019-03-29T02:31:57.356Z,1005.11
2019-03-29T02:32:57.364Z,1005.07
2019-03-29T02:33:57.335Z,1005.08
2019-03-29T02:34:57.324Z,1005.07
2019-03-29T02:35:57.314Z,1005.01
2019-03-29T02:36:57.310Z,1005.01
2019-03-29T02:37:57.314Z,1005.01
2019-03-29T02:38:58.979Z,1004.94
2019-03-29T02:39:57.267Z,1004.97
2019-03-29T02:40:57.255Z,1004.96
2019-03-29T02:41:57.274Z,1004.96
2019-03-29T02:42:57.256Z,1004.93
2019-03-29T02:43:57.224Z,1004.87
2019-03-29T02:44:57.214Z,1004.87
2019-03-29T02:45:57.798Z,1004.86
2019-03-29T02:46:57.189Z,1004.89
2019-03-29T02:47:57.200Z,1004.84
2019-03-29T02:48:57.175Z,1004.82
2019-03-29T02:49:57.162Z,1004.83
2019-03-29T02:50:57.152Z,1004.90
2019-03-29T02:51:57.133Z,1004.87
2019-03-29T02:52:57.148Z,1004.81
2019-03-29T02:53:57.114Z,1004.86
2019-03-29T02:54:57.100Z,1004.82
2019-03-29T02:55:57.097Z,1004.84
2019-03-29T02:56:57.082Z,1004.88
2019-03-29T02:57:57.093Z,1004.87
2019-03-29T02:58:57.060Z,1004.88
2019-03-29T02:59:57.062Z,1004.87
2019-03-29T03:00:57.038Z,1004.85
2019-03-29T03:01:57.027Z,1004.86
2019-03-29T03:02:57.050Z,1004.85
2019-03-29T03:03:57.005Z,1004.88
2019-03-29T03:04:56.992Z,1004.85
2019-03-29T03:05:56.988Z,1004.86
2019-03-29T03:06:56.974Z,1004.87
2019-03-29T03:07:56.993Z,1004.88
2019-03-29T03:09:12.329Z,1004.86
2019-03-29T03:09:57.939Z,1004.85
2019-03-29T03:10:56.925Z,1004.83
2019-03-29T03:11:56.919Z,1004.87
2019-03-29T03:12:57.047Z,1004.84
2019-03-29T03:13:56.897Z,1004.82
2019-03-29T03:14:56.889Z,1004.84
2019-03-29T03:15:56.882Z,1004.88
2019-03-29T03:16:56.865Z,1004.84
2019-03-29T03:17:56.857Z,1004.84
2019-03-29T03:18:56.871Z,1004.85
2019-03-29T03:19:56.831Z,1004.84
2019-03-29T03:20:56.818Z,1004.79
2019-03-29T03:21:56.808Z,1004.82
2019-03-29T03:22:56.796Z,1004.83
2019-03-29T03:23:56.828Z,1004.80
2019-03-29T03:24:56.777Z,1004.82
2019-03-29T03:25:56.798Z,1004.88
2019-03-29T03:26:56.753Z,1004.88
2019-03-29T03:27:56.749Z,1004.84
2019-03-29T03:28:56.753Z,1004.85
2019-03-29T03:29:56.719Z,1004.82
2019-03-29T03:30:56.716Z,1004.85
2019-03-29T03:31:56.708Z,1004.87
2019-03-29T03:32:56.690Z,1004.90
2019-03-29T03:33:56.710Z,1004.84
2019-03-29T03:34:56.667Z,1004.83
2019-03-29T03:35:56.671Z,1004.81
2019-03-29T03:36:56.644Z,1004.86
2019-03-29T03:37:56.632Z,1004.82
2019-03-29T03:38:56.655Z,1004.86
2019-03-29T03:39:56.610Z,1004.85
2019-03-29T03:40:56.612Z,1004.88
2019-03-29T03:41:56.586Z,1004.87
2019-03-29T03:42:56.601Z,1004.90
2019-03-29T03:43:56.580Z,1004.85
2019-03-29T03:44:56.599Z,1004.84
2019-03-29T03:45:56.542Z,1004.80
2019-03-29T03:46:56.533Z,1004.82
2019-03-29T03:47:56.522Z,1004.79
2019-03-29T03:48:56.512Z,1004.84
2019-03-29T03:50:00.662Z,1004.80
2019-03-29T03:50:56.488Z,1004.79
2019-03-29T03:51:56.481Z,1004.79
2019-03-29T03:52:56.477Z,1004.82
2019-03-29T03:53:56.457Z,1004.81
2019-03-29T03:54:56.466Z,1004.79
2019-03-29T03:55:56.440Z,1004.80
2019-03-29T03:56:56.426Z,1004.84
2019-03-29T03:57:57.990Z,1004.82
2019-03-29T03:58:56.402Z,1004.83
2019-03-29T03:59:56.413Z,1004.81
2019-03-29T04:00:56.508Z,1004.86
2019-03-29T04:01:56.367Z,1004.81
2019-03-29T04:02:56.359Z,1004.80
2019-03-29T04:03:56.348Z,1004.84
2019-03-29T04:04:56.366Z,1004.81
2019-03-29T04:05:56.331Z,1004.79
2019-03-29T04:06:56.324Z,1004.80
2019-03-29T04:07:56.305Z,1004.76
2019-03-29T04:08:56.297Z,1004.78
2019-03-29T04:09:56.309Z,1004.81
2019-03-29T04:10:56.275Z,1004.81
2019-03-29T04:11:56.260Z,1004.83
2019-03-29T04:12:56.249Z,1004.82
2019-03-29T04:13:56.238Z,1004.83
2019-03-29T04:14:56.266Z,1004.79
2019-03-29T04:15:56.220Z,1004.83
2019-03-29T04:16:56.220Z,1004.82
2019-03-29T04:17:56.200Z,1004.81
2019-03-29T04:18:56.184Z,1004.84
2019-03-29T04:19:56.198Z,1004.84
2019-03-29T04:20:56.167Z,1004.82
2019-03-29T04:21:56.155Z,1004.84
2019-03-29T04:22:56.142Z,1004.83
2019-03-29T04:23:56.131Z,1004.81
2019-03-29T04:24:56.159Z,1004.82
2019-03-29T04:25:56.116Z,1004.80
2019-03-29T04:26:56.098Z,1004.79
2019-03-29T04:27:56.090Z,1004.80
2019-03-29T04:29:04.172Z,1004.81
2019-03-29T04:29:57.389Z,1004.79
2019-03-29T04:30:56.084Z,1004.76
2019-03-29T04:31:56.051Z,1004.77
2019-03-29T04:32:56.045Z,1004.79
2019-03-29T04:33:56.024Z,1004.79
2019-03-29T04:34:56.010Z,1004.78
2019-03-29T04:35:56.023Z,1004.77
2019-03-29T04:36:55.997Z,1004.74
2019-03-29T04:37:55.980Z,1004.76
2019-03-29T04:38:55.967Z,1004.74
2019-03-29T04:40:06.779Z,1004.77
2019-03-29T04:40:56.974Z,1004.77
2019-03-29T04:41:55.941Z,1004.80
2019-03-29T04:42:55.934Z,1004.81
2019-03-29T04:43:55.911Z,1004.80
2019-03-29T04:44:59.655Z,1004.82
2019-03-29T04:45:55.916Z,1004.82
2019-03-29T04:46:55.883Z,1004.84
2019-03-29T04:47:55.875Z,1004.83
2019-03-29T04:48:55.857Z,1004.83
2019-03-29T04:49:55.855Z,1004.86
2019-03-29T04:50:55.903Z,1004.87
2019-03-29T04:51:55.830Z,1004.86
2019-03-29T04:52:55.815Z,1004.89
2019-03-29T04:53:55.806Z,1004.89
2019-03-29T04:54:55.795Z,1004.87
2019-03-29T04:55:55.810Z,1004.87
2019-03-29T04:56:55.774Z,1004.89
2019-03-29T04:57:55.763Z,1004.88
2019-03-29T04:58:55.746Z,1004.89
2019-03-29T04:59:55.736Z,1004.95
2019-03-29T05:00:55.749Z,1004.88
2019-03-29T05:01:55.718Z,1004.91
2019-03-29T05:02:55.708Z,1004.87
2019-03-29T05:03:55.695Z,1004.87
2019-03-29T05:04:55.683Z,1004.91
2019-03-29T05:05:55.705Z,1004.83
2019-03-29T05:06:55.662Z,1004.81
2019-03-29T05:07:55.653Z,1004.85
2019-03-29T05:08:55.640Z,1004.82
2019-03-29T05:09:55.626Z,1004.75
2019-03-29T05:10:55.644Z,1004.80
2019-03-29T05:11:55.606Z,1004.79
2019-03-29T05:12:55.596Z,1004.84
2019-03-29T05:13:55.592Z,1004.78
2019-03-29T05:14:55.571Z,1004.81
2019-03-29T05:15:55.597Z,1004.78
2019-03-29T05:16:55.554Z,1004.74
2019-03-29T05:17:55.546Z,1004.78
2019-03-29T05:18:55.610Z,1004.78
2019-03-29T05:19:55.520Z,1004.76
2019-03-29T05:20:55.510Z,1004.76
2019-03-29T05:21:55.525Z,1004.73
2019-03-29T05:22:55.488Z,1004.73
2019-03-29T05:23:55.479Z,1004.72
2019-03-29T05:24:55.463Z,1004.74
2019-03-29T05:25:55.454Z,1004.71
2019-03-29T05:26:55.465Z,1004.70
2019-03-29T05:27:55.433Z,1004.71
2019-03-29T05:28:55.421Z,1004.74
2019-03-29T05:29:55.416Z,1004.69
2019-03-29T05:30:55.398Z,1004.69
2019-03-29T05:31:55.410Z,1004.72
2019-03-29T05:32:55.382Z,1004.67
2019-03-29T05:33:55.364Z,1004.70
2019-03-29T05:34:55.353Z,1004.62
2019-03-29T05:35:55.345Z,1004.61
2019-03-29T05:36:58.333Z,1004.64
2019-03-29T05:37:55.332Z,1004.64
2019-03-29T05:38:55.313Z,1004.64
2019-03-29T05:39:55.302Z,1004.58
2019-03-29T05:40:55.291Z,1004.57
2019-03-29T05:41:55.302Z,1004.57
2019-03-29T05:42:55.266Z,1004.58
2019-03-29T05:43:55.260Z,1004.64
2019-03-29T05:44:55.245Z,1004.57
2019-03-29T05:45:55.234Z,1004.63
2019-03-29T05:46:55.249Z,1004.59
2019-03-29T05:47:55.217Z,1004.56
2019-03-29T05:48:55.228Z,1004.58
2019-03-29T05:49:55.194Z,1004.53
2019-03-29T05:50:55.178Z,1004.51
2019-03-29T05:51:55.192Z,1004.54
2019-03-29T05:52:55.166Z,1004.54
2019-03-29T05:53:55.145Z,1004.54
2019-03-29T05:54:55.139Z,1004.57
2019-03-29T05:55:55.121Z,1004.53
2019-03-29T05:56:55.150Z,1004.58
2019-03-29T05:57:55.101Z,1004.55
2019-03-29T05:58:55.088Z,1004.52
2019-03-29T05:59:55.080Z,1004.54
2019-03-29T06:00:55.072Z,1004.53
2019-03-29T06:01:55.058Z,1004.50
2019-03-29T06:02:55.072Z,1004.53
2019-03-29T06:03:55.036Z,1004.52
2019-03-29T06:04:55.023Z,1004.52
2019-03-29T06:05:55.012Z,1004.49
2019-03-29T06:06:55.001Z,1004.50
2019-03-29T06:07:55.012Z,1004.52
2019-03-29T06:08:54.978Z,1004.46
2019-03-29T06:09:55.039Z,1004.41
2019-03-29T06:10:54.957Z,1004.46
2019-03-29T06:11:54.946Z,1004.41
2019-03-29T06:12:54.958Z,1004.38
2019-03-29T06:13:54.922Z,1004.41
2019-03-29T06:14:54.911Z,1004.40
2019-03-29T06:15:54.900Z,1004.38
2019-03-29T06:16:54.892Z,1004.40
2019-03-29T06:17:54.918Z,1004.40
2019-03-29T06:18:54.867Z,1004.44
2019-03-29T06:19:54.857Z,1004.38
2019-03-29T06:20:54.846Z,1004.38
2019-03-29T06:21:54.858Z,1004.34
2019-03-29T06:22:54.851Z,1004.31
2019-03-29T06:23:54.810Z,1004.32
2019-03-29T06:24:54.799Z,1004.29
2019-03-29T06:25:54.790Z,1004.34
2019-03-29T06:26:54.792Z,1004.33
2019-03-29T06:27:54.790Z,1004.29
2019-03-29T06:28:54.768Z,1004.36
2019-03-29T06:29:54.743Z,1004.31
2019-03-29T06:30:54.733Z,1004.33
2019-03-29T06:31:54.724Z,1004.37
2019-03-29T06:32:54.733Z,1004.36
2019-03-29T06:33:54.698Z,1004.38
2019-03-29T06:34:54.685Z,1004.37
2019-03-29T06:35:54.696Z,1004.42
2019-03-29T06:36:54.666Z,1004.46
2019-03-29T06:37:54.684Z,1004.39
2019-03-29T06:38:54.642Z,1004.38
2019-03-29T06:39:54.634Z,1004.42
2019-03-29T06:41:02.654Z,1004.41
2019-03-29T06:41:55.613Z,1004.44
2019-03-29T06:42:54.646Z,1004.43
2019-03-29T06:43:54.629Z,1004.42
2019-03-29T06:44:54.592Z,1004.47
2019-03-29T06:45:54.569Z,1004.49
2019-03-29T06:46:54.613Z,1004.46
2019-03-29T06:47:54.582Z,1004.53
2019-03-29T06:48:54.540Z,1004.50
2019-03-29T06:49:54.533Z,1004.47
2019-03-29T06:50:54.553Z,1004.41
2019-03-29T06:51:54.522Z,1004.45
2019-03-29T06:52:54.524Z,1004.44
2019-03-29T06:53:54.479Z,1004.47
2019-03-29T06:54:54.472Z,1004.46
2019-03-29T06:55:54.476Z,1004.44
2019-03-29T06:56:54.452Z,1004.44
2019-03-29T06:57:54.435Z,1004.45
2019-03-29T06:58:54.443Z,1004.42
2019-03-29T06:59:54.411Z,1004.51
2019-03-29T07:00:54.401Z,1004.45
2019-03-29T07:01:54.386Z,1004.44
2019-03-29T07:02:54.391Z,1004.41
2019-03-29T07:03:54.385Z,1004.45
2019-03-29T07:04:54.361Z,1004.44
2019-03-29T07:05:54.345Z,1004.39
2019-03-29T07:06:54.349Z,1004.40
2019-03-29T07:07:54.323Z,1004.41
2019-03-29T07:08:54.345Z,1004.42
2019-03-29T07:09:54.308Z,1004.45
2019-03-29T07:10:54.426Z,1004.37
2019-03-29T07:11:54.283Z,1004.38
2019-03-29T07:12:56.404Z,1004.39
2019-03-29T07:13:57.662Z,1004.42
2019-03-29T07:14:54.255Z,1004.36
2019-03-29T07:15:54.250Z,1004.40
2019-03-29T07:16:54.227Z,1004.33
2019-03-29T07:17:54.215Z,1004.34
2019-03-29T07:18:54.231Z,1004.38
2019-03-29T07:19:54.198Z,1004.34
2019-03-29T07:20:54.188Z,1004.32
2019-03-29T07:21:54.172Z,1004.35
2019-03-29T07:22:54.167Z,1004.36
2019-03-29T07:23:54.174Z,1004.34
2019-03-29T07:24:54.137Z,1004.35
2019-03-29T07:25:56.376Z,1004.38
2019-03-29T07:26:54.120Z,1004.37
2019-03-29T07:27:54.103Z,1004.34
2019-03-29T07:28:54.115Z,1004.32
2019-03-29T07:29:54.087Z,1004.34
2019-03-29T07:30:54.078Z,1004.38
2019-03-29T07:31:54.058Z,1004.39
2019-03-29T07:32:54.049Z,1004.36
2019-03-29T07:33:54.067Z,1004.38
2019-03-29T07:34:54.027Z,1004.34
2019-03-29T07:35:54.015Z,1004.32
2019-03-29T07:36:54.023Z,1004.31
2019-03-29T07:37:54.001Z,1004.32
2019-03-29T07:38:54.021Z,1004.34
2019-03-29T07:39:54.146Z,1004.33
2019-03-29T07:40:53.962Z,1004.33
2019-03-29T07:41:53.963Z,1004.35
2019-03-29T07:42:53.946Z,1004.37
2019-03-29T07:43:53.931Z,1004.37
2019-03-29T07:44:53.940Z,1004.35
2019-03-29T07:45:53.910Z,1004.36
2019-03-29T07:46:53.895Z,1004.40
2019-03-29T07:47:53.886Z,1004.43
2019-03-29T07:48:53.875Z,1004.40
2019-03-29T07:49:53.885Z,1004.38
2019-03-29T07:50:53.851Z,1004.35
2019-03-29T07:51:53.881Z,1004.32
2019-03-29T07:52:53.833Z,1004.33
2019-03-29T07:53:53.820Z,1004.36
2019-03-29T07:54:53.834Z,1004.35
2019-03-29T07:55:53.799Z,1004.36
2019-03-29T07:56:53.806Z,1004.34
2019-03-29T07:57:53.775Z,1004.34
2019-03-29T07:58:53.782Z,1004.35
2019-03-29T07:59:53.778Z,1004.37
2019-03-29T08:00:53.745Z,1004.30
2019-03-29T08:01:53.757Z,1004.28
2019-03-29T08:02:55.187Z,1004.27
2019-03-29T08:03:53.726Z,1004.27
2019-03-29T08:04:53.741Z,1004.24
2019-03-29T08:05:53.693Z,1004.28
2019-03-29T08:06:53.694Z,1004.25
2019-03-29T08:07:53.687Z,1004.27
2019-03-29T08:08:53.677Z,1004.30
2019-03-29T08:09:54.256Z,1004.29
2019-03-29T08:10:54.211Z,1004.29
2019-03-29T08:11:55.140Z,1004.31
2019-03-29T08:12:53.692Z,1004.25
2019-03-29T08:13:53.605Z,1004.24
2019-03-29T08:14:53.621Z,1004.24
2019-03-29T08:15:53.590Z,1004.22
2019-03-29T08:16:53.667Z,1004.25
2019-03-29T08:17:53.565Z,1004.24
2019-03-29T08:18:53.551Z,1004.21
2019-03-29T08:20:24.398Z,1004.24
2019-03-29T08:20:54.524Z,1004.22
2019-03-29T08:21:53.515Z,1004.25
2019-03-29T08:22:53.539Z,1004.22
2019-03-29T08:23:53.499Z,1004.24
2019-03-29T08:24:53.509Z,1004.28
2019-03-29T08:25:53.477Z,1004.28
2019-03-29T08:26:53.470Z,1004.22
2019-03-29T08:27:53.449Z,1004.22
2019-03-29T08:28:53.440Z,1004.20
2019-03-29T08:29:53.457Z,1004.19
2019-03-29T08:30:53.416Z,1004.22
2019-03-29T08:31:55.454Z,1004.20
2019-03-29T08:32:53.395Z,1004.18
2019-03-29T08:33:53.408Z,1004.19
2019-03-29T08:34:53.400Z,1004.19
2019-03-29T08:35:53.372Z,1004.15
2019-03-29T08:36:53.360Z,1004.14
2019-03-29T08:37:53.343Z,1004.14
2019-03-29T08:38:53.337Z,1004.11
2019-03-29T08:39:56.330Z,1004.07
2019-03-29T08:40:53.319Z,1004.09
2019-03-29T08:42:00.065Z,1004.06
2019-03-29T08:42:54.295Z,1004.09
2019-03-29T08:43:53.279Z,1004.11
2019-03-29T08:44:53.265Z,1004.11
2019-03-29T08:45:53.279Z,1004.07
2019-03-29T08:46:53.244Z,1004.11
2019-03-29T08:47:53.239Z,1004.06
2019-03-29T08:48:53.243Z,1004.03
2019-03-29T08:49:53.216Z,1004.02
2019-03-29T08:50:53.244Z,1004.01
2019-03-29T08:51:53.214Z,1004.01
2019-03-29T08:52:53.179Z,1004.03
2019-03-29T08:53:53.169Z,1004.02
2019-03-29T08:54:53.190Z,1004.00
2019-03-29T08:55:53.196Z,1004.00
2019-03-29T08:56:53.150Z,1003.97
2019-03-29T08:57:53.127Z,1003.94
2019-03-29T08:58:53.173Z,1003.93
2019-03-29T08:59:53.123Z,1003.94
2019-03-29T09:00:53.117Z,1003.92
2019-03-29T09:01:53.120Z,1003.90
2019-03-29T09:02:53.074Z,1003.93
2019-03-29T09:04:04.738Z,1003.90
2019-03-29T09:04:54.079Z,1003.88
2019-03-29T09:05:53.084Z,1003.89
2019-03-29T09:06:54.170Z,1003.88
2019-03-29T09:07:53.020Z,1003.90
2019-03-29T09:08:53.045Z,1003.87
2019-03-29T09:09:53.050Z,1003.83
2019-03-29T09:10:53.011Z,1003.84
2019-03-29T09:11:52.990Z,1003.84
2019-03-29T09:12:53.002Z,1003.87
2019-03-29T09:13:52.952Z,1003.83
2019-03-29T09:14:52.944Z,1003.81
2019-03-29T09:15:52.955Z,1003.82
2019-03-29T09:16:52.924Z,1003.81
2019-03-29T09:17:52.908Z,1003.84
2019-03-29T09:18:52.910Z,1003.85
2019-03-29T09:19:52.920Z,1003.81
2019-03-29T09:20:52.901Z,1003.80
2019-03-29T09:21:52.868Z,1003.82
2019-03-29T09:22:52.904Z,1003.73
2019-03-29T09:23:52.846Z,1003.79
2019-03-29T09:24:52.836Z,1003.79
2019-03-29T09:25:52.846Z,1003.75
2019-03-29T09:26:52.839Z,1003.74
2019-03-29T09:27:52.827Z,1003.73
2019-03-29T09:28:52.807Z,1003.67
2019-03-29T09:29:52.779Z,1003.69
2019-03-29T09:30:56.205Z,1003.72
2019-03-29T09:31:52.769Z,1003.65
2019-03-29T09:32:52.749Z,1003.67
2019-03-29T09:33:52.751Z,1003.70
2019-03-29T09:34:52.725Z,1003.66
2019-03-29T09:35:52.746Z,1003.68
2019-03-29T09:36:52.703Z,1003.63
2019-03-29T09:37:55.021Z,1003.64
2019-03-29T09:38:52.680Z,1003.63
2019-03-29T09:39:52.683Z,1003.63
2019-03-29T09:40:58.841Z,1003.59
2019-03-29T09:41:53.647Z,1003.59
2019-03-29T09:43:06.818Z,1003.58
2019-03-29T09:43:54.503Z,1003.61
2019-03-29T09:44:52.618Z,1003.61
2019-03-29T09:45:52.852Z,1003.57
2019-03-29T09:46:52.618Z,1003.53
2019-03-29T09:47:55.749Z,1003.58
2019-03-29T09:48:52.593Z,1003.54
2019-03-29T09:49:52.562Z,1003.58
2019-03-29T09:50:52.550Z,1003.55
2019-03-29T09:51:52.564Z,1003.52
2019-03-29T09:52:52.530Z,1003.53
2019-03-29T09:53:52.547Z,1003.53
2019-03-29T09:54:53.991Z,1003.51
2019-03-29T09:55:53.536Z,1003.51
2019-03-29T09:56:52.534Z,1003.52
2019-03-29T09:57:52.504Z,1003.50
2019-03-29T09:58:52.469Z,1003.49
2019-03-29T09:59:52.451Z,1003.46
2019-03-29T10:00:52.495Z,1003.47
2019-03-29T10:01:54.270Z,1003.45
2019-03-29T10:02:52.441Z,1003.40
2019-03-29T10:03:52.428Z,1003.39
2019-03-29T10:04:52.398Z,1003.33
2019-03-29T10:05:52.387Z,1003.33
2019-03-29T10:06:52.452Z,1003.33
2019-03-29T10:07:52.364Z,1003.35
2019-03-29T10:08:53.493Z,1003.35
2019-03-29T10:09:52.345Z,1003.33
2019-03-29T10:10:52.341Z,1003.30
2019-03-29T10:11:52.345Z,1003.24
2019-03-29T10:12:52.324Z,1003.27
2019-03-29T10:13:52.301Z,1003.23
2019-03-29T10:14:52.292Z,1003.22
2019-03-29T10:15:52.291Z,1003.24
2019-03-29T10:16:52.295Z,1003.22
2019-03-29T10:17:52.275Z,1003.21
2019-03-29T10:18:52.286Z,1003.23
2019-03-29T10:19:52.464Z,1003.19
2019-03-29T10:20:52.245Z,1003.16
2019-03-29T10:21:52.237Z,1003.15
2019-03-29T10:22:52.220Z,1003.16
2019-03-29T10:23:52.191Z,1003.16
2019-03-29T10:24:52.185Z,1003.13
2019-03-29T10:25:52.170Z,1003.10
2019-03-29T10:26:52.184Z,1003.11
2019-03-29T10:27:52.149Z,1003.08
2019-03-29T10:28:52.150Z,1003.11
2019-03-29T10:29:52.130Z,1003.07
2019-03-29T10:30:52.132Z,1003.07
2019-03-29T10:31:52.170Z,1003.11
2019-03-29T10:32:55.290Z,1003.02
2019-03-29T10:33:52.096Z,1003.10
2019-03-29T10:34:52.074Z,1002.98
2019-03-29T10:35:53.076Z,1003.02
2019-03-29T10:36:52.098Z,1003.02
2019-03-29T10:37:52.044Z,1003.06
2019-03-29T10:38:52.058Z,1003.09
2019-03-29T10:39:52.023Z,1003.03
2019-03-29T10:40:52.007Z,1003.00
2019-03-29T10:41:51.997Z,1002.98
2019-03-29T10:42:58.027Z,1002.95
2019-03-29T10:43:52.990Z,1002.95
2019-03-29T10:44:51.968Z,1002.94
2019-03-29T10:45:52.036Z,1002.93
2019-03-29T10:46:52.004Z,1002.91
2019-03-29T10:47:51.957Z,1002.89
2019-03-29T10:48:51.934Z,1002.88
2019-03-29T10:49:51.916Z,1002.88
2019-03-29T10:50:51.900Z,1002.80
2019-03-29T10:51:51.889Z,1002.85
2019-03-29T10:52:51.901Z,1002.80
2019-03-29T10:53:51.866Z,1002.78
2019-03-29T10:54:51.859Z,1002.77
2019-03-29T10:55:51.860Z,1002.78
2019-03-29T10:56:51.862Z,1002.81
2019-03-29T10:57:51.847Z,1002.82
2019-03-29T10:58:51.832Z,1002.76
2019-03-29T10:59:51.803Z,1002.74
2019-03-29T11:00:51.792Z,1002.76
2019-03-29T11:01:51.781Z,1002.73
2019-03-29T11:02:51.839Z,1002.75
2019-03-29T11:03:51.761Z,1002.75
2019-03-29T11:04:51.758Z,1002.78
2019-03-29T11:05:51.761Z,1002.73
2019-03-29T11:06:51.755Z,1002.74
2019-03-29T11:07:51.740Z,1002.71
2019-03-29T11:08:51.710Z,1002.77
2019-03-29T11:09:51.696Z,1002.72
2019-03-29T11:10:51.682Z,1002.72
2019-03-29T11:11:51.679Z,1002.68
2019-03-29T11:12:51.713Z,1002.69
2019-03-29T11:13:51.652Z,1002.67
2019-03-29T11:14:51.639Z,1002.66
2019-03-29T11:15:51.634Z,1002.66
2019-03-29T11:16:51.721Z,1002.60
2019-03-29T11:17:51.638Z,1002.61
2019-03-29T11:18:51.612Z,1002.56
2019-03-29T11:19:51.844Z,1002.56
2019-03-29T11:20:51.635Z,1002.48
2019-03-29T11:21:51.599Z,1002.43
2019-03-29T11:22:51.611Z,1002.46
2019-03-29T11:23:51.550Z,1002.45
2019-03-29T11:24:51.533Z,1002.39
2019-03-29T11:25:51.545Z,1002.41
2019-03-29T11:26:51.513Z,1002.39
2019-03-29T11:27:51.604Z,1002.36
2019-03-29T11:28:51.491Z,1002.42
2019-03-29T11:29:51.522Z,1002.33
2019-03-29T11:30:51.465Z,1002.33
2019-03-29T11:31:51.493Z,1002.28
2019-03-29T11:32:51.478Z,1002.28
2019-03-29T11:33:51.435Z,1002.25
2019-03-29T11:34:51.434Z,1002.26
2019-03-29T11:35:51.499Z,1002.22
2019-03-29T11:36:52.725Z,1002.19
2019-03-29T11:37:51.424Z,1002.16
2019-03-29T11:38:52.379Z,1002.16
2019-03-29T11:39:51.383Z,1002.21
2019-03-29T11:40:51.363Z,1002.18
2019-03-29T11:41:51.355Z,1002.11
2019-03-29T11:42:51.384Z,1002.15
2019-03-29T11:43:51.329Z,1002.14
2019-03-29T11:44:51.314Z,1002.13
2019-03-29T11:45:51.321Z,1002.15
2019-03-29T11:46:51.319Z,1002.13
2019-03-29T11:47:51.334Z,1002.13
2019-03-29T11:48:51.271Z,1002.08
2019-03-29T11:49:52.744Z,1002.09
2019-03-29T11:50:51.269Z,1002.07
2019-03-29T11:51:51.239Z,1002.09
2019-03-29T11:52:51.238Z,1002.05
2019-03-29T11:53:51.562Z,1001.99
2019-03-29T11:54:51.219Z,1002.03
2019-03-29T11:55:51.195Z,1002.07
2019-03-29T11:56:51.191Z,1002.04
2019-03-29T11:57:51.184Z,1002.04
2019-03-29T11:58:51.204Z,1002.00
2019-03-29T11:59:51.152Z,1001.95
2019-03-29T12:00:51.156Z,1001.98
2019-03-29T12:01:51.137Z,1001.96
2019-03-29T12:02:51.122Z,1001.95
2019-03-29T12:03:51.211Z,1001.94
2019-03-29T12:04:51.102Z,1001.93
2019-03-29T12:05:51.095Z,1001.87